createdAt,value
2018-08-18T00:01:28.851Z,57.36
2018-08-18T00:03:57.087Z,57.22
2018-08-18T00:06:25.292Z,58.02
2018-08-18T00:08:53.522Z,57.70
2018-08-18T00:11:22.504Z,58.17
2018-08-18T00:13:55.976Z,57.62
2018-08-18T00:16:24.983Z,57.52
2018-08-18T00:18:56.177Z,57.91
2018-08-18T00:21:24.402Z,57.22
2018-08-18T00:24:04.473Z,56.61
2018-08-18T00:26:33.035Z,56.80
2018-08-18T00:29:01.292Z,57.23
2018-08-18T00:31:29.937Z,56.96
2018-08-18T00:33:58.231Z,57.84
2018-08-18T00:36:26.412Z,57.59
2018-08-18T00:38:58.719Z,57.40
2018-08-18T00:41:28.532Z,58.03
2018-08-18T00:43:57.553Z,58.36
2018-08-18T00:46:28.776Z,58.36
2018-08-18T00:48:57.269Z,57.61
2018-08-18T00:51:30.943Z,57.12
2018-08-18T00:53:59.168Z,56.42
2018-08-18T00:56:27.357Z,55.82
2018-08-18T00:58:56.380Z,56.15
2018-08-18T01:01:24.580Z,55.29
2018-08-18T01:03:54.876Z,55.04
2018-08-18T01:06:35.284Z,55.60
2018-08-18T01:09:05.384Z,56.18
2018-08-18T01:11:35.433Z,55.71
2018-08-18T01:14:10.403Z,56.60
2018-08-18T01:16:42.760Z,57.47
2018-08-18T01:19:11.044Z,57.79
2018-08-18T01:21:40.364Z,58.33
2018-08-18T01:24:08.584Z,58.30
2018-08-18T01:26:36.803Z,58.14
2018-08-18T01:29:14.518Z,57.51
2018-08-18T01:31:42.712Z,57.03
2018-08-18T01:34:10.936Z,57.83
2018-08-18T01:36:39.129Z,56.70
2018-08-18T01:39:09.152Z,56.39
2018-08-18T01:41:37.628Z,56.92
2018-08-18T01:44:18.369Z,56.56
2018-08-18T01:46:48.195Z,56.72
2018-08-18T01:49:27.883Z,57.48
2018-08-18T01:51:56.904Z,57.34
2018-08-18T01:54:25.152Z,57.81
2018-08-18T01:56:57.139Z,57.98
2018-08-18T01:59:25.356Z,57.18
2018-08-18T02:01:53.556Z,57.66
2018-08-18T02:04:21.796Z,57.67
2018-08-18T02:06:50.000Z,58.00
2018-08-18T02:09:18.236Z,57.38
2018-08-18T02:11:48.352Z,57.33
2018-08-18T02:14:20.944Z,56.81
2018-08-18T02:16:49.848Z,57.66
2018-08-18T02:19:18.514Z,57.55
2018-08-18T02:21:46.724Z,57.37
2018-08-18T02:24:14.939Z,57.51
2018-08-18T02:26:43.136Z,58.00
2018-08-18T02:29:11.360Z,57.88
2018-08-18T02:31:39.564Z,56.61
2018-08-18T02:34:07.788Z,57.47
2018-08-18T02:36:36.045Z,56.66
2018-08-18T02:39:04.671Z,56.73
2018-08-18T02:41:33.487Z,56.93
2018-08-18T02:44:01.992Z,57.51
2018-08-18T02:46:38.936Z,57.88
2018-08-18T02:49:07.305Z,57.79
2018-08-18T02:51:35.796Z,57.93
2018-08-18T02:54:04.068Z,58.91
2018-08-18T02:56:36.444Z,59.63
2018-08-18T02:59:06.892Z,60.21
2018-08-18T03:01:37.208Z,59.50
2018-08-18T03:04:08.263Z,58.89
2018-08-18T03:06:36.540Z,59.57
2018-08-18T03:09:07.479Z,58.92
2018-08-18T03:11:43.472Z,59.24
2018-08-18T03:14:11.776Z,59.49
2018-08-18T03:16:42.431Z,59.45
2018-08-18T03:19:13.414Z,59.44
2018-08-18T03:21:42.608Z,58.90
2018-08-18T03:24:16.536Z,58.13
2018-08-18T03:26:45.973Z,58.28
2018-08-18T03:29:15.093Z,58.52
2018-08-18T03:31:43.735Z,58.95
2018-08-18T03:34:12.443Z,59.25
2018-08-18T03:36:42.262Z,59.28
2018-08-18T03:39:16.552Z,59.31
2018-08-18T03:41:45.360Z,58.93
2018-08-18T03:44:13.612Z,59.06
2018-08-18T03:46:41.828Z,59.20
2018-08-18T03:49:10.056Z,58.45
2018-08-18T03:51:43.354Z,58.75
2018-08-18T03:54:11.848Z,59.28
2018-08-18T03:56:40.364Z,59.73
2018-08-18T03:59:08.679Z,59.43
2018-08-18T04:01:44.420Z,59.24
2018-08-18T04:04:14.680Z,59.11
2018-08-18T04:06:44.155Z,59.29
2018-08-18T04:09:20.449Z,59.33
2018-08-18T04:11:48.656Z,59.92
2018-08-18T04:14:21.092Z,60.10
2018-08-18T04:16:50.569Z,59.41
2018-08-18T04:19:19.808Z,60.09
2018-08-18T04:21:48.764Z,58.99
2018-08-18T04:24:17.053Z,58.59
2018-08-18T04:26:47.489Z,58.41
2018-08-18T04:29:15.991Z,58.16
2018-08-18T04:31:44.227Z,58.23
2018-08-18T04:34:12.440Z,58.12
2018-08-18T04:36:40.664Z,58.10
2018-08-18T04:39:12.062Z,58.17
2018-08-18T04:41:40.817Z,57.47
2018-08-18T04:44:09.052Z,58.03
2018-08-18T04:46:37.292Z,57.75
2018-08-18T04:49:06.237Z,57.42
2018-08-18T04:51:34.594Z,57.54
2018-08-18T04:54:03.292Z,56.70
2018-08-18T04:56:31.535Z,58.05
2018-08-18T04:58:59.739Z,58.04
2018-08-18T05:01:28.000Z,58.19
2018-08-18T05:04:03.866Z,58.01
2018-08-18T05:06:32.883Z,58.15
2018-08-18T05:09:02.336Z,58.44
2018-08-18T05:11:30.821Z,58.42
2018-08-18T05:13:59.368Z,58.73
2018-08-18T05:16:27.849Z,59.40
2018-08-18T05:18:56.173Z,59.63
2018-08-18T05:21:24.900Z,59.36
2018-08-18T05:23:53.559Z,60.17
2018-08-18T05:26:21.875Z,60.30
2018-08-18T05:28:50.132Z,60.67
2018-08-18T05:31:18.578Z,60.18
2018-08-18T05:33:46.972Z,60.26
2018-08-18T05:36:15.216Z,59.46
2018-08-18T05:38:43.840Z,60.02
2018-08-18T05:41:12.740Z,59.44
2018-08-18T05:43:41.000Z,59.21
2018-08-18T05:46:09.273Z,58.84
2018-08-18T05:48:37.504Z,58.47
2018-08-18T05:51:05.765Z,58.66
2018-08-18T05:53:35.016Z,58.15
2018-08-18T05:56:03.817Z,58.53
2018-08-18T05:58:48.732Z,58.46
2018-08-18T06:01:35.727Z,57.75
2018-08-18T06:04:09.096Z,58.53
2018-08-18T06:06:37.678Z,57.11
2018-08-18T06:09:08.185Z,56.54
2018-08-18T06:11:36.463Z,55.87
2018-08-18T06:14:04.692Z,55.25
2018-08-18T06:16:32.929Z,55.25
2018-08-18T06:19:01.166Z,55.08
2018-08-18T06:21:29.408Z,53.54
2018-08-18T06:23:57.627Z,53.24
2018-08-18T06:26:27.275Z,52.89
2018-08-18T06:28:56.028Z,53.22
2018-08-18T06:31:25.068Z,52.46
2018-08-18T06:33:53.425Z,51.35
2018-08-18T06:36:21.719Z,51.66
2018-08-18T06:38:50.385Z,50.31
2018-08-18T06:41:19.979Z,49.53
2018-08-18T06:43:48.239Z,49.18
2018-08-18T06:46:16.500Z,49.25
2018-08-18T06:48:44.734Z,48.85
2018-08-18T06:51:13.116Z,48.76
2018-08-18T06:53:46.387Z,49.25
2018-08-18T06:56:14.652Z,49.41
2018-08-18T06:58:42.868Z,49.47
2018-08-18T07:01:11.430Z,49.31
2018-08-18T07:03:43.400Z,50.36
2018-08-18T07:06:13.517Z,50.57
2018-08-18T07:08:47.084Z,49.42
2018-08-18T07:11:15.348Z,49.21
2018-08-18T07:13:44.273Z,49.84
2018-08-18T07:16:12.767Z,49.15
2018-08-18T07:18:41.021Z,48.83
2018-08-18T07:21:09.544Z,49.14
2018-08-18T07:23:37.771Z,49.55
2018-08-18T07:26:06.412Z,49.11
2018-08-18T07:28:34.666Z,48.21
2018-08-18T07:31:02.920Z,48.76
2018-08-18T07:33:31.221Z,48.83
2018-08-18T07:36:01.269Z,48.33
2018-08-18T07:38:29.579Z,48.07
2018-08-18T07:40:57.819Z,48.74
2018-08-18T07:43:30.176Z,48.50
2018-08-18T07:46:01.184Z,48.05
2018-08-18T07:48:29.428Z,48.95
2018-08-18T07:50:57.743Z,48.51
2018-08-18T07:53:26.159Z,47.80
2018-08-18T07:55:54.392Z,47.39
2018-08-18T07:58:23.931Z,48.38
2018-08-18T08:00:52.215Z,48.50
2018-08-18T08:03:21.220Z,48.84
2018-08-18T08:05:49.613Z,47.86
2018-08-18T08:08:17.895Z,47.59
2018-08-18T08:10:46.153Z,47.83
2018-08-18T08:13:15.148Z,47.08
2018-08-18T08:15:43.367Z,46.97
2018-08-18T08:18:13.254Z,46.54
2018-08-18T08:20:41.474Z,45.57
2018-08-18T08:23:09.710Z,45.58
2018-08-18T08:25:37.959Z,45.55
2018-08-18T08:28:06.240Z,46.39
2018-08-18T08:30:34.508Z,45.91
2018-08-18T08:33:02.751Z,45.68
2018-08-18T08:35:30.997Z,44.63
2018-08-18T08:37:59.244Z,44.79
2018-08-18T08:40:27.456Z,44.97
2018-08-18T08:42:55.750Z,45.21
2018-08-18T08:45:24.440Z,45.30
2018-08-18T08:47:52.682Z,45.23
2018-08-18T08:50:22.868Z,44.88
2018-08-18T08:52:53.268Z,44.98
2018-08-18T08:55:22.749Z,44.01
2018-08-18T08:57:50.976Z,43.79
2018-08-18T09:00:19.190Z,44.58
2018-08-18T09:02:47.431Z,43.98
2018-08-18T09:05:15.663Z,43.41
2018-08-18T09:07:43.912Z,42.60
2018-08-18T09:10:13.712Z,42.32
2018-08-18T09:12:42.012Z,41.94
2018-08-18T09:15:11.503Z,42.61
2018-08-18T09:17:39.749Z,41.33
2018-08-18T09:20:10.953Z,40.61
2018-08-18T09:22:53.660Z,39.79
2018-08-18T09:25:21.864Z,38.34
2018-08-18T09:27:53.852Z,38.21
2018-08-18T09:30:22.453Z,38.94
2018-08-18T09:32:50.675Z,39.62
2018-08-18T09:35:18.871Z,37.79
2018-08-18T09:38:02.736Z,36.73
2018-08-18T09:40:32.251Z,37.50
2018-08-18T09:43:04.096Z,37.21
2018-08-18T09:45:32.376Z,35.92
2018-08-18T09:48:00.540Z,36.40
2018-08-18T09:50:28.781Z,35.30
2018-08-18T09:52:57.043Z,35.02
2018-08-18T09:55:25.264Z,33.72
2018-08-18T09:57:53.509Z,33.87
2018-08-18T10:00:25.928Z,35.11
2018-08-18T10:02:54.189Z,34.58
2018-08-18T10:05:22.424Z,34.08
2018-08-18T10:07:50.676Z,34.35
2018-08-18T10:10:18.918Z,34.59
2018-08-18T10:12:47.184Z,33.88
2018-08-18T10:15:15.458Z,35.04
2018-08-18T10:17:43.708Z,35.04
2018-08-18T10:20:11.936Z,35.82
2018-08-18T10:22:40.162Z,34.99
2018-08-18T10:25:08.431Z,34.96
2018-08-18T10:27:36.723Z,35.29
2018-08-18T10:30:05.524Z,33.29
2018-08-18T10:32:37.580Z,32.08
2018-08-18T10:35:06.188Z,33.00
2018-08-18T10:37:34.421Z,34.57
2018-08-18T10:40:09.064Z,33.98
2018-08-18T10:42:37.350Z,34.77
2018-08-18T10:45:07.316Z,34.16
2018-08-18T10:47:35.576Z,32.96
2018-08-18T10:50:15.261Z,32.89
2018-08-18T10:52:55.107Z,33.51
2018-08-18T10:55:23.376Z,32.91
2018-08-18T10:58:10.969Z,33.73
2018-08-18T11:00:39.247Z,33.75
2018-08-18T11:03:08.552Z,33.81
2018-08-18T11:05:36.793Z,33.05
2018-08-18T11:08:08.196Z,32.62
2018-08-18T11:10:37.807Z,33.28
2018-08-18T11:13:06.109Z,32.95
2018-08-18T11:15:34.402Z,33.46
2018-08-18T11:18:03.023Z,33.11
2018-08-18T11:20:33.848Z,32.36
2018-08-18T11:23:10.299Z,32.55
2018-08-18T11:25:53.296Z,32.90
2018-08-18T11:28:22.467Z,33.84
2018-08-18T11:30:51.996Z,33.43
2018-08-18T11:33:34.705Z,33.03
2018-08-18T11:36:03.896Z,32.99
2018-08-18T11:38:32.709Z,32.13
2018-08-18T11:41:01.004Z,32.88
2018-08-18T11:43:31.124Z,33.04
2018-08-18T11:45:59.367Z,32.91
2018-08-18T11:48:27.619Z,32.87
2018-08-18T11:50:56.864Z,32.42
2018-08-18T11:53:25.132Z,32.45
2018-08-18T11:55:53.376Z,31.19
2018-08-18T11:58:23.603Z,32.02
2018-08-18T12:00:58.173Z,30.43
2018-08-18T12:03:29.888Z,31.19
2018-08-18T12:06:00.323Z,32.82
2018-08-18T12:08:29.820Z,32.76
2018-08-18T12:11:02.396Z,31.36
2018-08-18T12:13:42.339Z,31.28
2018-08-18T12:16:12.496Z,31.19
2018-08-18T12:18:41.968Z,30.53
2018-08-18T12:21:10.452Z,31.18
2018-08-18T12:23:39.964Z,31.62
2018-08-18T12:26:11.287Z,32.21
2018-08-18T12:28:58.108Z,31.58
2018-08-18T12:31:27.588Z,31.22
2018-08-18T12:33:55.915Z,31.72
2018-08-18T12:36:24.694Z,31.06
2018-08-18T12:38:54.261Z,32.24
2018-08-18T12:41:22.827Z,30.01
2018-08-18T12:43:53.285Z,31.02
2018-08-18T12:46:23.012Z,30.04
2018-08-18T12:48:52.677Z,30.71
2018-08-18T12:51:21.601Z,30.78
2018-08-18T12:53:52.220Z,30.54
2018-08-18T12:56:22.679Z,32.18
2018-08-18T12:58:50.949Z,31.42
2018-08-18T13:01:36.029Z,31.39
2018-08-18T13:04:05.711Z,30.81
2018-08-18T13:06:40.111Z,30.61
2018-08-18T13:09:10.046Z,30.79
2018-08-18T13:11:38.438Z,30.33
2018-08-18T13:14:06.784Z,30.42
2018-08-18T13:16:35.989Z,30.35
2018-08-18T13:19:04.292Z,30.12
2018-08-18T13:21:32.742Z,29.61
2018-08-18T13:24:01.895Z,29.89
2018-08-18T13:26:30.409Z,28.76
2018-08-18T13:28:58.636Z,27.87
2018-08-18T13:31:32.985Z,30.41
2018-08-18T13:34:01.201Z,30.74
2018-08-18T13:36:29.450Z,29.78
2018-08-18T13:38:57.714Z,29.13
2018-08-18T13:41:26.457Z,29.47
2018-08-18T13:43:55.706Z,30.63
2018-08-18T13:46:35.582Z,29.99
2018-08-18T13:49:04.905Z,29.47
2018-08-18T13:51:33.709Z,28.78
2018-08-18T13:54:03.008Z,28.79
2018-08-18T13:56:32.901Z,29.50
2018-08-18T13:59:01.289Z,28.59
2018-08-18T14:01:36.845Z,29.05
2018-08-18T14:04:06.436Z,29.29
2018-08-18T14:06:40.758Z,28.77
2018-08-18T14:09:11.136Z,28.08
2018-08-18T14:11:39.841Z,28.77
2018-08-18T14:14:08.199Z,29.54
2018-08-18T14:16:36.679Z,28.48
2018-08-18T14:19:05.452Z,29.04
2018-08-18T14:21:33.728Z,29.21
2018-08-18T14:24:02.082Z,28.28
2018-08-18T14:26:30.931Z,29.25
2018-08-18T14:28:59.272Z,29.30
2018-08-18T14:31:27.878Z,28.46
2018-08-18T14:33:56.528Z,28.77
2018-08-18T14:36:25.744Z,28.35
2018-08-18T14:38:54.536Z,29.28
2018-08-18T14:41:37.000Z,28.76
2018-08-18T14:44:06.170Z,28.38
2018-08-18T14:46:35.018Z,28.74
2018-08-18T14:49:03.176Z,29.45
2018-08-18T14:51:32.365Z,29.36
2018-08-18T14:54:01.586Z,28.51
2018-08-18T14:56:30.692Z,28.57
2018-08-18T14:58:59.116Z,28.62
2018-08-18T15:01:27.458Z,28.51
2018-08-18T15:03:55.965Z,28.33
2018-08-18T15:06:24.842Z,28.38
2018-08-18T15:08:53.386Z,28.50
2018-08-18T15:11:22.207Z,28.31
2018-08-18T15:13:50.624Z,28.12
2018-08-18T15:16:19.007Z,28.62
2018-08-18T15:18:47.639Z,28.18
2018-08-18T15:21:16.464Z,28.04
2018-08-18T15:23:45.496Z,27.96
2018-08-18T15:26:14.130Z,28.21
2018-08-18T15:28:42.776Z,27.24
2018-08-18T15:31:11.496Z,27.61
2018-08-18T15:33:39.876Z,28.03
2018-08-18T15:36:18.653Z,27.47
2018-08-18T15:38:47.312Z,26.71
2018-08-18T15:41:16.266Z,26.56
2018-08-18T15:43:44.512Z,27.22
2018-08-18T15:46:12.819Z,27.68
2018-08-18T15:48:42.037Z,28.06
2018-08-18T15:51:10.645Z,27.74
2018-08-18T15:53:48.643Z,28.07
2018-08-18T15:56:17.464Z,27.85
2018-08-18T15:58:48.450Z,28.87
2018-08-18T16:01:17.310Z,29.06
2018-08-18T16:03:46.001Z,28.36
2018-08-18T16:06:14.487Z,28.29
2018-08-18T16:08:43.186Z,29.10
2018-08-18T16:11:11.673Z,28.78
2018-08-18T16:13:40.458Z,29.49
2018-08-18T16:16:09.025Z,29.73
2018-08-18T16:18:37.917Z,30.26
2018-08-18T16:21:15.085Z,30.11
2018-08-18T16:23:44.222Z,29.46
2018-08-18T16:26:13.539Z,29.52
2018-08-18T16:28:42.324Z,29.98
2018-08-18T16:31:11.293Z,29.58
2018-08-18T16:33:39.866Z,29.74
2018-08-18T16:36:08.637Z,29.89
2018-08-18T16:38:37.434Z,30.41
2018-08-18T16:41:06.002Z,29.36
2018-08-18T16:43:36.681Z,29.91
2018-08-18T16:46:20.589Z,29.83
2018-08-18T16:48:49.233Z,29.92
2018-08-18T16:51:17.521Z,29.92
2018-08-18T16:53:45.936Z,30.55
2018-08-18T16:56:31.016Z,31.00
2018-08-18T16:59:00.518Z,30.29
2018-08-18T17:01:28.768Z,30.43
2018-08-18T17:03:57.101Z,30.51
2018-08-18T17:06:25.344Z,31.30
2018-08-18T17:08:53.603Z,31.64
2018-08-18T17:11:21.957Z,31.40
2018-08-18T17:13:50.337Z,31.12
2018-08-18T17:16:18.910Z,30.53
2018-08-18T17:18:47.277Z,31.69
2018-08-18T17:21:16.118Z,31.31
2018-08-18T17:23:45.141Z,31.68
2018-08-18T17:26:13.621Z,31.50
2018-08-18T17:28:42.118Z,31.72
2018-08-18T17:31:11.166Z,31.17
2018-08-18T17:33:40.553Z,31.19
2018-08-18T17:36:08.893Z,31.53
2018-08-18T17:38:37.322Z,31.38
2018-08-18T17:41:05.767Z,32.48
2018-08-18T17:43:34.265Z,32.16
2018-08-18T17:46:05.358Z,31.81
2018-08-18T17:48:41.557Z,32.22
2018-08-18T17:51:10.292Z,32.52
2018-08-18T17:53:42.867Z,31.92
2018-08-18T17:56:12.110Z,32.47
2018-08-18T17:58:40.587Z,32.77
2018-08-18T18:01:09.136Z,32.69
2018-08-18T18:03:37.585Z,32.76
2018-08-18T18:06:06.058Z,33.34
2018-08-18T18:08:34.504Z,33.32
2018-08-18T18:11:02.793Z,33.56
2018-08-18T18:13:31.897Z,33.04
2018-08-18T18:16:00.428Z,33.59
2018-08-18T18:18:34.262Z,33.94
2018-08-18T18:21:02.582Z,33.72
2018-08-18T18:23:31.250Z,34.46
2018-08-18T18:25:59.781Z,33.64
2018-08-18T18:28:28.417Z,34.85
2018-08-18T18:30:56.718Z,34.17
2018-08-18T18:33:25.335Z,34.89
2018-08-18T18:35:53.709Z,34.78
2018-08-18T18:38:22.260Z,35.59
2018-08-18T18:40:50.785Z,35.48
2018-08-18T18:43:19.120Z,34.74
2018-08-18T18:45:47.613Z,35.09
2018-08-18T18:48:17.441Z,34.88
2018-08-18T18:50:47.945Z,35.25
2018-08-18T18:53:16.678Z,35.84
2018-08-18T18:55:51.939Z,35.52
2018-08-18T18:58:20.277Z,36.01
2018-08-18T19:00:54.262Z,36.19
2018-08-18T19:03:22.585Z,36.51
2018-08-18T19:05:50.861Z,36.32
2018-08-18T19:08:20.689Z,35.97
2018-08-18T19:10:49.100Z,36.05
2018-08-18T19:13:17.381Z,36.08
2018-08-18T19:15:45.593Z,36.19
2018-08-18T19:18:14.491Z,36.10
2018-08-18T19:20:42.708Z,37.02
2018-08-18T19:23:16.968Z,36.55
2018-08-18T19:25:46.454Z,36.29
2018-08-18T19:28:17.565Z,37.30
2018-08-18T19:30:45.772Z,37.60
2018-08-18T19:33:14.977Z,37.44
2018-08-18T19:35:47.337Z,38.08
2018-08-18T19:38:16.297Z,38.15
2018-08-18T19:40:45.742Z,38.26
2018-08-18T19:43:18.135Z,38.10
2018-08-18T19:45:46.573Z,38.34
2018-08-18T19:48:16.852Z,37.88
2018-08-18T19:50:51.459Z,38.23
2018-08-18T19:53:23.436Z,38.04
2018-08-18T19:55:52.377Z,38.84
2018-08-18T19:58:20.775Z,38.37
2018-08-18T20:00:49.017Z,38.52
2018-08-18T20:03:18.140Z,39.41
2018-08-18T20:05:46.368Z,39.51
2018-08-18T20:08:17.245Z,38.94
2018-08-18T20:10:50.916Z,38.78
2018-08-18T20:13:20.247Z,39.00
2018-08-18T20:15:49.669Z,39.23
2018-08-18T20:18:18.166Z,39.36
2018-08-18T20:20:46.703Z,40.01
2018-08-18T20:23:17.224Z,39.77
2018-08-18T20:25:45.627Z,40.08
2018-08-18T20:28:14.172Z,40.49
2018-08-18T20:30:42.464Z,41.49
2018-08-18T20:33:10.844Z,41.50
2018-08-18T20:35:39.080Z,41.30
2018-08-18T20:38:07.281Z,40.96
2018-08-18T20:40:35.516Z,42.04
2018-08-18T20:43:03.724Z,42.01
2018-08-18T20:45:33.973Z,41.72
2018-08-18T20:48:02.179Z,41.32
2018-08-18T20:50:30.420Z,41.85
2018-08-18T20:53:02.780Z,41.92
2018-08-18T20:55:31.001Z,41.37
2018-08-18T20:58:03.376Z,41.81
2018-08-18T21:00:31.630Z,41.43
2018-08-18T21:02:59.906Z,41.28
2018-08-18T21:05:28.157Z,42.16
2018-08-18T21:07:59.015Z,41.41
2018-08-18T21:10:27.260Z,41.88
2018-08-18T21:12:56.072Z,42.21
2018-08-18T21:15:24.315Z,42.67
2018-08-18T21:17:52.524Z,42.10
2018-08-18T21:20:20.740Z,42.62
2018-08-18T21:22:48.956Z,42.37
2018-08-18T21:25:17.179Z,42.84
2018-08-18T21:27:45.376Z,42.92
2018-08-18T21:30:16.239Z,43.52
2018-08-18T21:32:44.459Z,43.42
2018-08-18T21:35:12.748Z,43.84
2018-08-18T21:37:40.955Z,43.09
2018-08-18T21:40:09.962Z,43.28
2018-08-18T21:42:38.205Z,44.00
2018-08-18T21:45:09.519Z,43.96
2018-08-18T21:47:37.708Z,44.05
2018-08-18T21:50:06.108Z,44.30
2018-08-18T21:52:35.144Z,43.93
2018-08-18T21:55:03.404Z,44.50
2018-08-18T21:57:38.122Z,45.15
2018-08-18T22:00:06.421Z,44.57
2018-08-18T22:02:41.836Z,44.70
2018-08-18T22:05:11.751Z,44.70
2018-08-18T22:07:45.466Z,45.57
2018-08-18T22:10:13.698Z,45.36
2018-08-18T22:12:41.944Z,45.53
2018-08-18T22:15:15.851Z,44.77
2018-08-18T22:17:44.135Z,45.49
2018-08-18T22:20:13.182Z,45.34
2018-08-18T22:22:41.469Z,45.55
2018-08-18T22:25:09.758Z,44.97
2018-08-18T22:27:38.222Z,45.43
2018-08-18T22:30:09.786Z,45.81
2018-08-18T22:32:40.118Z,45.99
2018-08-18T22:35:09.205Z,45.51
2018-08-18T22:37:37.482Z,45.68
2018-08-18T22:40:07.174Z,46.49
2018-08-18T22:42:35.412Z,46.55
2018-08-18T22:45:15.192Z,46.92
2018-08-18T22:47:44.481Z,47.45
2018-08-18T22:50:12.989Z,47.84
2018-08-18T22:52:43.741Z,47.45
2018-08-18T22:55:11.965Z,47.31
2018-08-18T22:57:42.121Z,47.61
2018-08-18T23:00:10.384Z,47.07
2018-08-18T23:02:38.608Z,47.06
2018-08-18T23:05:06.840Z,47.42
2018-08-18T23:07:35.569Z,47.88
2018-08-18T23:10:04.212Z,47.53
2018-08-18T23:12:32.509Z,47.84
2018-08-18T23:15:00.774Z,48.59
2018-08-18T23:17:29.078Z,48.01
2018-08-18T23:19:57.353Z,47.80
2018-08-18T23:22:40.961Z,48.21
2018-08-18T23:25:09.269Z,48.74
2018-08-18T23:27:37.515Z,49.21
2018-08-18T23:30:06.015Z,49.22
2018-08-18T23:32:34.255Z,49.46
2018-08-18T23:35:02.493Z,48.96
2018-08-18T23:37:30.724Z,49.13
2018-08-18T23:39:58.971Z,48.99
2018-08-18T23:42:27.663Z,49.62
2018-08-18T23:44:55.889Z,50.33
2018-08-18T23:47:24.136Z,49.97
2018-08-18T23:49:52.361Z,49.94
2018-08-18T23:52:20.600Z,50.07
2018-08-18T23:54:48.811Z,49.98
2018-08-18T23:57:18.130Z,50.11
2018-08-18T23:59:46.798Z,50.48
